world map with RPR marked

RPR - Airport

This information may not be accurate or current and is not valid for navigation or flight planning. No warranty of fitness for any purpose is made or implied.

flag of India

Donate via PayPal

Additional information is available on the NEW Great Circle Mapper

Location
City:  Raipur, Chhattisgarh, India
Name:Swami Vivekananda Airport (Raipur Airport)
ICAO / IATA:VERP / RPR

Details
Type:Airport (Aerodrome, Airfield)
Use:Public/Civil
Latitude:21°10'49"N (21.180406)
Longitude:81°44'20"E (81.738753)
Elevation:1041 ft (317 m)
Runways:1
Longest:6414 × 150 ft (1955 × 45.5 m)

Time
Timezone:UTC+5:30 (DST+7:30)
Local Time:

Weather
METAR:VERP  121200Z 06002KT 6000 NSC 26/10 Q1014 NO SIG
TAF:VERP  (expired)

Related Locations
Nearby:
Farthest:IPC: 11627 mi / 18712 km
Easter Island (Isla de Pascua, Rapa Nui) [Mataveri Intl], VS, CL

Find:

   beyond  
but within

Other Information
Maps:
Sources:

  


 


Great Circle Mapper   Great Circle Mapper
Great Circle Mapper FAQ   Great Circle Mapper FAQ
  Karl's Home Page
KLSē   KLSē Home
   GC on Facebook
Airlines of the World   Airlines of the World
Donate via PayPal


Copyright © 2004-2017, Karl L. Swartz. All rights reserved.
All trademarks mentioned herein belong to their respective owners.

Please see credits for attribution and copyright information.

Karl Swartz <karl@kls2.com>
  Powered by FreeBSD
Valid HTML 4.01!
Labeled with ICRA
hCard Microformat
Geo Microformat